Cornelia, Georgia
Current Conditions -  °F | °C
As of 12:35 AM on Tuesday 27 Jan 2015 (Local Time) from KTOC Reporting Station
Scattered Clouds Scattered Clouds  
Wind Chill: 29°   Ceiling: Unl
Heat Index: 33°   Visibility: 10mi
Dew Point: 25°   Wind: 5mph
Humidity: 73%   Direction: 260°W
Pressure: 29.84"   Gusts: NA
Location:  34.51°N, 83.53°W
Report Text: KTOC 270535Z AUTO 26004KT 10SM SCT050 01/M04 A2984 RMK AO2 T00061038
Loading
Personal Weather Stations






























Interactive Weather Map New forecast layout! Learn more

10-Day Weather Forecast

Advertisements
Track Severe Weather on mobile